sensor_id;sensor_type;location;lat;lon;timestamp;pressure;altitude;pressure_sealevel;temperature;humidity
74334;BME280;62753;40.394;-80.022;2022-10-16T00:01:06;97216.33;;;17.13;20.06
74334;BME280;62753;40.394;-80.022;2022-10-16T00:03:26;97215.51;;;17.27;20.36
74334;BME280;62753;40.394;-80.022;2022-10-16T00:05:51;97221.31;;;17.54;19.90
74334;BME280;62753;40.394;-80.022;2022-10-16T00:08:16;97221.65;;;17.24;20.09
74334;BME280;62753;40.394;-80.022;2022-10-16T00:10:42;97223.09;;;17.60;19.94
74334;BME280;62753;40.394;-80.022;2022-10-16T00:13:08;97226.03;;;16.73;19.96
74334;BME280;62753;40.394;-80.022;2022-10-16T00:15:33;97228.17;;;16.51;20.37
74334;BME280;62753;40.394;-80.022;2022-10-16T00:17:58;97230.23;;;17.06;20.49
74334;BME280;62753;40.394;-80.022;2022-10-16T00:20:23;97232.26;;;17.11;20.47
74334;BME280;62753;40.394;-80.022;2022-10-16T00:22:49;97233.22;;;17.16;20.42
74334;BME280;62753;40.394;-80.022;2022-10-16T00:25:14;97237.80;;;17.61;19.99
74334;BME280;62753;40.394;-80.022;2022-10-16T00:27:39;97235.97;;;16.85;20.17
74334;BME280;62753;40.394;-80.022;2022-10-16T00:30:06;97237.87;;;17.34;20.08
74334;BME280;62753;40.394;-80.022;2022-10-16T00:32:30;97236.68;;;17.06;20.56
74334;BME280;62753;40.394;-80.022;2022-10-16T00:34:55;97233.52;;;17.70;20.29
74334;BME280;62753;40.394;-80.022;2022-10-16T00:37:21;97231.95;;;16.37;20.45
74334;BME280;62753;40.394;-80.022;2022-10-16T00:39:46;97226.08;;;17.35;20.45
74334;BME280;62753;40.394;-80.022;2022-10-16T00:42:15;97222.89;;;17.06;20.49
74334;BME280;62753;40.394;-80.022;2022-10-16T00:44:46;97220.75;;;16.94;20.41
74334;BME280;62753;40.394;-80.022;2022-10-16T00:47:02;97221.83;;;16.91;20.69
74334;BME280;62753;40.394;-80.022;2022-10-16T00:49:28;97221.99;;;16.99;20.73
74334;BME280;62753;40.394;-80.022;2022-10-16T00:51:54;97221.39;;;16.27;20.66
74334;BME280;62753;40.394;-80.022;2022-10-16T00:54:20;97221.70;;;16.78;20.42
74334;BME280;62753;40.394;-80.022;2022-10-16T00:56:44;97223.73;;;17.05;20.65
74334;BME280;62753;40.394;-80.022;2022-10-16T00:59:15;97227.94;;;16.22;20.62
74334;BME280;62753;40.394;-80.022;2022-10-16T01:01:34;97227.39;;;16.54;20.54
74334;BME280;62753;40.394;-80.022;2022-10-16T01:04:00;97227.70;;;16.96;20.61
74334;BME280;62753;40.394;-80.022;2022-10-16T01:06:30;97227.69;;;16.82;20.74
74334;BME280;62753;40.394;-80.022;2022-10-16T01:09:00;97227.79;;;16.93;20.49
74334;BME280;62753;40.394;-80.022;2022-10-16T01:11:22;97225.66;;;16.75;20.32
74334;BME280;62753;40.394;-80.022;2022-10-16T01:13:45;97228.28;;;16.77;20.63
74334;BME280;62753;40.394;-80.022;2022-10-16T01:16:10;97230.31;;;16.38;21.01
74334;BME280;62753;40.394;-80.022;2022-10-16T01:18:35;97226.96;;;16.43;20.85
74334;BME280;62753;40.394;-80.022;2022-10-16T01:21:00;97228.21;;;16.28;20.94
74334;BME280;62753;40.394;-80.022;2022-10-16T01:23:31;97228.58;;;17.01;20.78
74334;BME280;62753;40.394;-80.022;2022-10-16T01:26:06;97223.47;;;16.27;21.08
74334;BME280;62753;40.394;-80.022;2022-10-16T01:28:15;97223.90;;;16.35;21.12
74334;BME280;62753;40.394;-80.022;2022-10-16T01:30:40;97222.50;;;16.47;21.25
74334;BME280;62753;40.394;-80.022;2022-10-16T01:33:10;97226.18;;;15.06;22.51
74334;BME280;62753;40.394;-80.022;2022-10-16T01:35:34;97224.28;;;15.60;22.34
74334;BME280;62753;40.394;-80.022;2022-10-16T01:38:00;97221.01;;;15.71;22.13
74334;BME280;62753;40.394;-80.022;2022-10-16T01:40:21;97225.51;;;15.86;22.37
74334;BME280;62753;40.394;-80.022;2022-10-16T01:42:48;97228.52;;;15.26;22.45
74334;BME280;62753;40.394;-80.022;2022-10-16T01:45:14;97231.80;;;15.58;22.03
74334;BME280;62753;40.394;-80.022;2022-10-16T01:47:36;97234.01;;;16.14;21.87
74334;BME280;62753;40.394;-80.022;2022-10-16T01:50:03;97232.17;;;16.25;21.93
74334;BME280;62753;40.394;-80.022;2022-10-16T01:52:28;97232.56;;;16.06;21.22
74334;BME280;62753;40.394;-80.022;2022-10-16T01:54:55;97231.82;;;15.98;21.85
74334;BME280;62753;40.394;-80.022;2022-10-16T01:57:20;97228.79;;;16.32;21.43
74334;BME280;62753;40.394;-80.022;2022-10-16T01:59:46;97229.17;;;16.06;21.17
74334;BME280;62753;40.394;-80.022;2022-10-16T02:02:10;97226.97;;;16.35;21.14
74334;BME280;62753;40.394;-80.022;2022-10-16T02:04:37;97230.05;;;15.75;21.44
74334;BME280;62753;40.394;-80.022;2022-10-16T02:07:00;97230.10;;;15.93;21.45
74334;BME280;62753;40.394;-80.022;2022-10-16T02:09:25;97231.18;;;16.13;21.74
74334;BME280;62753;40.394;-80.022;2022-10-16T02:11:53;97233.18;;;16.14;21.44
74334;BME280;62753;40.394;-80.022;2022-10-16T02:14:16;97235.57;;;16.11;21.14
74334;BME280;62753;40.394;-80.022;2022-10-16T02:16:42;97241.77;;;16.08;21.27
74334;BME280;62753;40.394;-80.022;2022-10-16T02:19:06;97243.96;;;16.13;21.66
74334;BME280;62753;40.394;-80.022;2022-10-16T02:21:38;97249.55;;;16.34;22.36
74334;BME280;62753;40.394;-80.022;2022-10-16T02:24:02;97249.98;;;16.06;21.95
74334;BME280;62753;40.394;-80.022;2022-10-16T02:26:27;97251.03;;;16.18;21.28
74334;BME280;62753;40.394;-80.022;2022-10-16T02:28:52;97253.36;;;16.08;21.34
74334;BME280;62753;40.394;-80.022;2022-10-16T02:31:18;97252.51;;;15.79;21.17
74334;BME280;62753;40.394;-80.022;2022-10-16T02:33:40;97251.20;;;16.16;21.18
74334;BME280;62753;40.394;-80.022;2022-10-16T02:36:04;97256.41;;;16.07;21.08
74334;BME280;62753;40.394;-80.022;2022-10-16T02:38:30;97256.97;;;16.24;21.24
74334;BME280;62753;40.394;-80.022;2022-10-16T02:40:55;97261.88;;;16.10;21.21
74334;BME280;62753;40.394;-80.022;2022-10-16T02:43:20;97265.59;;;16.25;21.36
74334;BME280;62753;40.394;-80.022;2022-10-16T02:45:45;97266.23;;;15.81;21.21
74334;BME280;62753;40.394;-80.022;2022-10-16T02:48:11;97264.71;;;15.82;21.25
74334;BME280;62753;40.394;-80.022;2022-10-16T02:50:36;97267.41;;;16.82;21.03
74334;BME280;62753;40.394;-80.022;2022-10-16T02:53:01;97266.32;;;16.19;21.38
74334;BME280;62753;40.394;-80.022;2022-10-16T02:55:27;97266.88;;;15.64;21.41
74334;BME280;62753;40.394;-80.022;2022-10-16T02:57:52;97267.56;;;15.86;21.41
74334;BME280;62753;40.394;-80.022;2022-10-16T03:00:18;97268.71;;;15.78;21.77
74334;BME280;62753;40.394;-80.022;2022-10-16T03:02:43;97263.27;;;15.84;21.97
74334;BME280;62753;40.394;-80.022;2022-10-16T03:05:09;97265.11;;;15.68;21.86
74334;BME280;62753;40.394;-80.022;2022-10-16T03:07:34;97267.85;;;15.42;22.14
74334;BME280;62753;40.394;-80.022;2022-10-16T03:10:00;97264.92;;;15.39;22.62
74334;BME280;62753;40.394;-80.022;2022-10-16T03:12:25;97267.23;;;15.35;23.07
74334;BME280;62753;40.394;-80.022;2022-10-16T03:14:51;97267.50;;;15.75;23.82
74334;BME280;62753;40.394;-80.022;2022-10-16T03:17:15;97269.43;;;15.01;23.64
74334;BME280;62753;40.394;-80.022;2022-10-16T03:19:41;97271.55;;;14.47;23.51
74334;BME280;62753;40.394;-80.022;2022-10-16T03:22:06;97268.52;;;14.88;23.14
74334;BME280;62753;40.394;-80.022;2022-10-16T03:24:32;97271.13;;;14.89;23.56
74334;BME280;62753;40.394;-80.022;2022-10-16T03:26:57;97272.34;;;15.30;23.96
74334;BME280;62753;40.394;-80.022;2022-10-16T03:29:22;97270.71;;;14.67;24.47
74334;BME280;62753;40.394;-80.022;2022-10-16T03:31:48;97271.20;;;14.92;25.01
74334;BME280;62753;40.394;-80.022;2022-10-16T03:34:13;97279.28;;;14.75;24.54
74334;BME280;62753;40.394;-80.022;2022-10-16T03:36:38;97282.31;;;14.27;24.72
74334;BME280;62753;40.394;-80.022;2022-10-16T03:39:04;97278.30;;;14.21;24.59
74334;BME280;62753;40.394;-80.022;2022-10-16T03:41:29;97277.05;;;14.77;24.74
74334;BME280;62753;40.394;-80.022;2022-10-16T03:43:54;97274.56;;;14.71;24.51
74334;BME280;62753;40.394;-80.022;2022-10-16T03:46:20;97273.71;;;14.51;23.86
74334;BME280;62753;40.394;-80.022;2022-10-16T03:48:45;97269.75;;;14.91;24.62
74334;BME280;62753;40.394;-80.022;2022-10-16T03:51:11;97267.48;;;13.71;23.96
74334;BME280;62753;40.394;-80.022;2022-10-16T03:53:36;97264.87;;;14.65;23.66
74334;BME280;62753;40.394;-80.022;2022-10-16T03:56:01;97262.78;;;14.27;23.22
74334;BME280;62753;40.394;-80.022;2022-10-16T03:58:27;97264.32;;;14.97;23.09
74334;BME280;62753;40.394;-80.022;2022-10-16T04:00:52;97265.83;;;14.73;23.45
74334;BME280;62753;40.394;-80.022;2022-10-16T04:03:18;97262.78;;;14.69;23.08
74334;BME280;62753;40.394;-80.022;2022-10-16T04:05:43;97265.05;;;15.25;23.55
74334;BME280;62753;40.394;-80.022;2022-10-16T04:08:08;97270.78;;;14.94;24.23
74334;BME280;62753;40.394;-80.022;2022-10-16T04:10:34;97272.95;;;14.57;24.45
74334;BME280;62753;40.394;-80.022;2022-10-16T04:12:59;97275.26;;;14.16;25.11
74334;BME280;62753;40.394;-80.022;2022-10-16T04:15:25;97275.15;;;14.70;26.39
74334;BME280;62753;40.394;-80.022;2022-10-16T04:17:50;97274.66;;;13.89;27.46
74334;BME280;62753;40.394;-80.022;2022-10-16T04:20:15;97278.36;;;14.21;27.09
74334;BME280;62753;40.394;-80.022;2022-10-16T04:22:40;97275.00;;;13.45;28.36
74334;BME280;62753;40.394;-80.022;2022-10-16T04:25:06;97272.09;;;13.72;28.09
74334;BME280;62753;40.394;-80.022;2022-10-16T04:27:32;97270.82;;;14.23;26.79
74334;BME280;62753;40.394;-80.022;2022-10-16T04:29:57;97271.24;;;14.56;26.49
74334;BME280;62753;40.394;-80.022;2022-10-16T04:32:22;97266.38;;;14.00;26.49
74334;BME280;62753;40.394;-80.022;2022-10-16T04:34:47;97259.82;;;13.69;26.81
74334;BME280;62753;40.394;-80.022;2022-10-16T04:37:13;97263.60;;;13.71;27.37
74334;BME280;62753;40.394;-80.022;2022-10-16T04:39:38;97264.74;;;13.76;27.34
74334;BME280;62753;40.394;-80.022;2022-10-16T04:42:03;97265.29;;;12.94;27.73
74334;BME280;62753;40.394;-80.022;2022-10-16T04:44:33;97263.45;;;13.21;27.48
74334;BME280;62753;40.394;-80.022;2022-10-16T04:46:53;97266.42;;;13.74;27.81
74334;BME280;62753;40.394;-80.022;2022-10-16T04:49:19;97267.84;;;13.10;28.15
74334;BME280;62753;40.394;-80.022;2022-10-16T04:51:44;97268.92;;;12.83;28.08
74334;BME280;62753;40.394;-80.022;2022-10-16T04:54:10;97269.48;;;13.31;27.52
74334;BME280;62753;40.394;-80.022;2022-10-16T04:56:35;97267.57;;;13.18;27.58
74334;BME280;62753;40.394;-80.022;2022-10-16T04:59:01;97263.35;;;13.67;26.93
74334;BME280;62753;40.394;-80.022;2022-10-16T05:01:26;97261.48;;;13.32;27.58
74334;BME280;62753;40.394;-80.022;2022-10-16T05:03:52;97258.11;;;13.37;26.91
74334;BME280;62753;40.394;-80.022;2022-10-16T05:06:17;97266.19;;;13.90;27.04
74334;BME280;62753;40.394;-80.022;2022-10-16T05:08:42;97273.80;;;13.57;27.06
74334;BME280;62753;40.394;-80.022;2022-10-16T05:11:08;97278.32;;;13.52;27.66
74334;BME280;62753;40.394;-80.022;2022-10-16T05:13:33;97280.56;;;13.53;26.93
74334;BME280;62753;40.394;-80.022;2022-10-16T05:16:00;97276.55;;;13.33;27.55
74334;BME280;62753;40.394;-80.022;2022-10-16T05:18:24;97279.81;;;13.45;27.34
74334;BME280;62753;40.394;-80.022;2022-10-16T05:20:50;97281.70;;;13.45;27.51
74334;BME280;62753;40.394;-80.022;2022-10-16T05:23:15;97280.71;;;13.41;27.12
74334;BME280;62753;40.394;-80.022;2022-10-16T05:25:41;97283.13;;;13.27;26.92
74334;BME280;62753;40.394;-80.022;2022-10-16T05:28:07;97282.91;;;13.18;26.59
74334;BME280;62753;40.394;-80.022;2022-10-16T05:30:32;97282.21;;;13.77;26.84
74334;BME280;62753;40.394;-80.022;2022-10-16T05:32:57;97281.47;;;12.90;26.74
74334;BME280;62753;40.394;-80.022;2022-10-16T05:35:23;97278.52;;;14.28;26.52
74334;BME280;62753;40.394;-80.022;2022-10-16T05:37:48;97284.60;;;13.82;26.61
74334;BME280;62753;40.394;-80.022;2022-10-16T05:40:15;97287.75;;;13.89;27.55
74334;BME280;62753;40.394;-80.022;2022-10-16T05:42:39;97286.62;;;13.70;26.96
74334;BME280;62753;40.394;-80.022;2022-10-16T05:45:06;97285.45;;;13.39;26.89
74334;BME280;62753;40.394;-80.022;2022-10-16T05:47:30;97284.98;;;13.60;26.18
74334;BME280;62753;40.394;-80.022;2022-10-16T05:49:55;97280.23;;;13.50;26.20
74334;BME280;62753;40.394;-80.022;2022-10-16T05:52:21;97275.68;;;13.64;27.45
74334;BME280;62753;40.394;-80.022;2022-10-16T05:54:46;97275.46;;;13.22;26.62
74334;BME280;62753;40.394;-80.022;2022-10-16T05:57:11;97274.69;;;13.37;26.61
74334;BME280;62753;40.394;-80.022;2022-10-16T05:59:37;97272.73;;;13.34;26.86
74334;BME280;62753;40.394;-80.022;2022-10-16T06:02:02;97274.21;;;14.01;26.54
74334;BME280;62753;40.394;-80.022;2022-10-16T06:04:28;97264.15;;;13.80;27.46
74334;BME280;62753;40.394;-80.022;2022-10-16T06:06:53;97267.39;;;13.03;27.37
74334;BME280;62753;40.394;-80.022;2022-10-16T06:09:18;97270.73;;;14.04;27.16
74334;BME280;62753;40.394;-80.022;2022-10-16T06:11:44;97267.98;;;13.21;26.64
74334;BME280;62753;40.394;-80.022;2022-10-16T06:14:09;97264.06;;;13.72;26.17
74334;BME280;62753;40.394;-80.022;2022-10-16T06:16:36;97264.04;;;13.51;27.34
74334;BME280;62753;40.394;-80.022;2022-10-16T06:19:01;97262.49;;;13.69;27.13
74334;BME280;62753;40.394;-80.022;2022-10-16T06:21:26;97263.14;;;13.74;28.11
74334;BME280;62753;40.394;-80.022;2022-10-16T06:23:51;97266.83;;;13.31;27.07
74334;BME280;62753;40.394;-80.022;2022-10-16T06:26:18;97264.69;;;13.26;26.92
74334;BME280;62753;40.394;-80.022;2022-10-16T06:28:42;97263.67;;;13.52;26.83
74334;BME280;62753;40.394;-80.022;2022-10-16T06:31:08;97261.73;;;14.26;26.34
74334;BME280;62753;40.394;-80.022;2022-10-16T06:33:32;97265.61;;;13.76;26.44
74334;BME280;62753;40.394;-80.022;2022-10-16T06:36:02;97266.84;;;13.78;26.33
74334;BME280;62753;40.394;-80.022;2022-10-16T06:38:23;97265.60;;;14.20;26.37
74334;BME280;62753;40.394;-80.022;2022-10-16T06:40:49;97262.70;;;13.62;26.47
74334;BME280;62753;40.394;-80.022;2022-10-16T06:43:14;97264.28;;;13.50;26.16
74334;BME280;62753;40.394;-80.022;2022-10-16T06:45:40;97262.25;;;13.85;26.20
74334;BME280;62753;40.394;-80.022;2022-10-16T06:48:05;97263.05;;;14.57;25.85
74334;BME280;62753;40.394;-80.022;2022-10-16T06:50:30;97260.38;;;14.62;25.59
74334;BME280;62753;40.394;-80.022;2022-10-16T06:52:56;97262.99;;;14.59;26.07
74334;BME280;62753;40.394;-80.022;2022-10-16T06:55:21;97262.02;;;14.42;26.18
74334;BME280;62753;40.394;-80.022;2022-10-16T06:57:47;97266.13;;;13.72;26.25
74334;BME280;62753;40.394;-80.022;2022-10-16T07:00:12;97268.40;;;13.91;26.50
74334;BME280;62753;40.394;-80.022;2022-10-16T07:02:37;97273.15;;;13.46;26.51
74334;BME280;62753;40.394;-80.022;2022-10-16T07:05:03;97277.31;;;13.37;26.48
74334;BME280;62753;40.394;-80.022;2022-10-16T07:07:28;97281.01;;;14.04;26.17
74334;BME280;62753;40.394;-80.022;2022-10-16T07:09:53;97288.38;;;14.21;26.08
74334;BME280;62753;40.394;-80.022;2022-10-16T07:12:19;97289.79;;;14.44;26.34
74334;BME280;62753;40.394;-80.022;2022-10-16T07:14:44;97288.09;;;13.98;26.21
74334;BME280;62753;40.394;-80.022;2022-10-16T07:17:10;97286.22;;;14.66;25.66
74334;BME280;62753;40.394;-80.022;2022-10-16T07:19:35;97288.97;;;13.44;26.13
74334;BME280;62753;40.394;-80.022;2022-10-16T07:22:01;97290.72;;;14.24;26.14
74334;BME280;62753;40.394;-80.022;2022-10-16T07:24:26;97290.57;;;13.86;26.05
74334;BME280;62753;40.394;-80.022;2022-10-16T07:26:51;97292.08;;;14.11;25.87
74334;BME280;62753;40.394;-80.022;2022-10-16T07:29:19;97278.80;;;14.71;25.28
74334;BME280;62753;40.394;-80.022;2022-10-16T07:31:42;97280.13;;;13.46;25.74
74334;BME280;62753;40.394;-80.022;2022-10-16T07:34:08;97276.09;;;14.19;26.28
74334;BME280;62753;40.394;-80.022;2022-10-16T07:36:33;97281.64;;;13.98;26.44
74334;BME280;62753;40.394;-80.022;2022-10-16T07:38:59;97281.06;;;12.98;27.50
74334;BME280;62753;40.394;-80.022;2022-10-16T07:41:25;97283.28;;;13.70;27.24
74334;BME280;62753;40.394;-80.022;2022-10-16T07:43:50;97282.58;;;13.56;26.81
74334;BME280;62753;40.394;-80.022;2022-10-16T07:46:15;97285.26;;;13.33;27.27
74334;BME280;62753;40.394;-80.022;2022-10-16T07:48:40;97283.89;;;13.09;27.42
74334;BME280;62753;40.394;-80.022;2022-10-16T07:51:06;97285.58;;;13.58;27.49
74334;BME280;62753;40.394;-80.022;2022-10-16T07:53:31;97291.38;;;13.37;27.41
74334;BME280;62753;40.394;-80.022;2022-10-16T07:55:58;97286.25;;;13.08;27.88
74334;BME280;62753;40.394;-80.022;2022-10-16T07:58:21;97286.16;;;13.51;27.47
74334;BME280;62753;40.394;-80.022;2022-10-16T08:00:46;97285.45;;;13.92;27.22
74334;BME280;62753;40.394;-80.022;2022-10-16T08:03:11;97291.35;;;13.14;27.12
74334;BME280;62753;40.394;-80.022;2022-10-16T08:05:37;97293.00;;;13.41;27.32
74334;BME280;62753;40.394;-80.022;2022-10-16T08:08:02;97291.54;;;13.12;26.90
74334;BME280;62753;40.394;-80.022;2022-10-16T08:10:29;97292.10;;;13.85;26.97
74334;BME280;62753;40.394;-80.022;2022-10-16T08:12:53;97295.94;;;13.24;26.92
74334;BME280;62753;40.394;-80.022;2022-10-16T08:15:19;97298.44;;;13.46;26.73
74334;BME280;62753;40.394;-80.022;2022-10-16T08:17:53;97299.84;;;13.34;26.88
74334;BME280;62753;40.394;-80.022;2022-10-16T08:20:10;97301.96;;;13.86;26.63
74334;BME280;62753;40.394;-80.022;2022-10-16T08:22:35;97300.22;;;14.35;26.24
74334;BME280;62753;40.394;-80.022;2022-10-16T08:25:01;97301.03;;;14.76;26.08
74334;BME280;62753;40.394;-80.022;2022-10-16T08:27:31;97297.94;;;13.76;26.36
74334;BME280;62753;40.394;-80.022;2022-10-16T08:29:52;97298.23;;;13.97;26.29
74334;BME280;62753;40.394;-80.022;2022-10-16T08:32:17;97301.98;;;14.22;26.48
74334;BME280;62753;40.394;-80.022;2022-10-16T08:34:42;97304.41;;;13.72;26.52
74334;BME280;62753;40.394;-80.022;2022-10-16T08:37:07;97308.75;;;13.77;26.79
74334;BME280;62753;40.394;-80.022;2022-10-16T08:39:33;97309.35;;;13.76;26.74
74334;BME280;62753;40.394;-80.022;2022-10-16T08:42:10;97304.16;;;14.02;26.50
74334;BME280;62753;40.394;-80.022;2022-10-16T08:44:40;97301.76;;;14.17;26.44
74334;BME280;62753;40.394;-80.022;2022-10-16T08:46:54;97295.04;;;13.83;26.73
74334;BME280;62753;40.394;-80.022;2022-10-16T08:49:15;97299.07;;;13.66;26.48
74334;BME280;62753;40.394;-80.022;2022-10-16T08:51:40;97308.37;;;14.08;27.08
74334;BME280;62753;40.394;-80.022;2022-10-16T08:54:10;97311.61;;;13.68;26.75
74334;BME280;62753;40.394;-80.022;2022-10-16T08:56:31;97310.61;;;13.74;26.93
74334;BME280;62753;40.394;-80.022;2022-10-16T08:58:58;97302.75;;;14.12;26.33
74334;BME280;62753;40.394;-80.022;2022-10-16T09:01:22;97297.46;;;14.05;26.58
74334;BME280;62753;40.394;-80.022;2022-10-16T09:04:03;97294.30;;;13.77;26.49
74334;BME280;62753;40.394;-80.022;2022-10-16T09:06:21;97288.52;;;14.92;26.47
74334;BME280;62753;40.394;-80.022;2022-10-16T09:08:43;97291.05;;;14.61;26.74
74334;BME280;62753;40.394;-80.022;2022-10-16T09:11:08;97280.14;;;13.81;26.48
74334;BME280;62753;40.394;-80.022;2022-10-16T09:13:33;97279.54;;;14.92;26.24
74334;BME280;62753;40.394;-80.022;2022-10-16T09:16:01;97281.39;;;15.24;26.16
74334;BME280;62753;40.394;-80.022;2022-10-16T09:18:24;97284.74;;;14.55;26.48
74334;BME280;62753;40.394;-80.022;2022-10-16T09:20:49;97284.82;;;14.83;26.33
74334;BME280;62753;40.394;-80.022;2022-10-16T09:23:16;97290.97;;;13.92;26.88
74334;BME280;62753;40.394;-80.022;2022-10-16T09:25:36;97291.15;;;14.53;26.99
74334;BME280;62753;40.394;-80.022;2022-10-16T09:28:01;97292.66;;;14.18;26.84
74334;BME280;62753;40.394;-80.022;2022-10-16T09:30:28;97290.68;;;14.20;26.74
74334;BME280;62753;40.394;-80.022;2022-10-16T09:32:52;97286.37;;;14.37;26.60
74334;BME280;62753;40.394;-80.022;2022-10-16T09:35:19;97283.06;;;14.26;26.72
74334;BME280;62753;40.394;-80.022;2022-10-16T09:37:43;97279.23;;;14.79;26.22
74334;BME280;62753;40.394;-80.022;2022-10-16T09:40:13;97275.92;;;14.98;25.75
74334;BME280;62753;40.394;-80.022;2022-10-16T09:42:35;97273.24;;;15.11;27.29
74334;BME280;62753;40.394;-80.022;2022-10-16T09:44:59;97272.21;;;15.65;26.48
74334;BME280;62753;40.394;-80.022;2022-10-16T09:47:26;97270.58;;;15.01;26.81
74334;BME280;62753;40.394;-80.022;2022-10-16T09:49:51;97272.48;;;14.69;26.77
74334;BME280;62753;40.394;-80.022;2022-10-16T09:52:15;97285.40;;;14.46;27.58
74334;BME280;62753;40.394;-80.022;2022-10-16T09:54:51;97289.00;;;14.58;27.01
74334;BME280;62753;40.394;-80.022;2022-10-16T09:57:06;97292.14;;;14.31;26.75
74334;BME280;62753;40.394;-80.022;2022-10-16T09:59:31;97294.57;;;14.28;26.38
74334;BME280;62753;40.394;-80.022;2022-10-16T10:02:00;97296.06;;;14.40;26.52
74334;BME280;62753;40.394;-80.022;2022-10-16T10:04:23;97291.04;;;14.18;25.93
74334;BME280;62753;40.394;-80.022;2022-10-16T10:06:49;97288.24;;;14.65;25.74
74334;BME280;62753;40.394;-80.022;2022-10-16T10:09:18;97287.07;;;14.46;25.87
74334;BME280;62753;40.394;-80.022;2022-10-16T10:11:44;97288.27;;;14.57;25.95
74334;BME280;62753;40.394;-80.022;2022-10-16T10:14:04;97288.73;;;14.54;24.88
74334;BME280;62753;40.394;-80.022;2022-10-16T10:16:29;97293.06;;;15.59;25.81
74334;BME280;62753;40.394;-80.022;2022-10-16T10:18:58;97291.41;;;15.29;25.61
74334;BME280;62753;40.394;-80.022;2022-10-16T10:21:19;97282.65;;;15.01;26.16
74334;BME280;62753;40.394;-80.022;2022-10-16T10:26:13;97289.79;;;14.55;26.83
74334;BME280;62753;40.394;-80.022;2022-10-16T10:28:47;97291.41;;;14.45;27.01
74334;BME280;62753;40.394;-80.022;2022-10-16T10:31:06;97292.84;;;14.87;27.06
74334;BME280;62753;40.394;-80.022;2022-10-16T10:33:32;97292.75;;;14.50;26.75
74334;BME280;62753;40.394;-80.022;2022-10-16T10:35:58;97290.45;;;14.73;26.73
74334;BME280;62753;40.394;-80.022;2022-10-16T10:38:30;97291.69;;;14.54;27.56
74334;BME280;62753;40.394;-80.022;2022-10-16T10:40:50;97288.65;;;14.97;26.87
74334;BME280;62753;40.394;-80.022;2022-10-16T10:43:17;97281.58;;;14.32;27.72
74334;BME280;62753;40.394;-80.022;2022-10-16T10:45:41;97281.24;;;14.44;28.23
74334;BME280;62753;40.394;-80.022;2022-10-16T10:48:10;97289.49;;;14.90;27.34
74334;BME280;62753;40.394;-80.022;2022-10-16T10:50:26;97280.13;;;13.15;28.67
74334;BME280;62753;40.394;-80.022;2022-10-16T10:52:56;97291.39;;;14.99;27.24
74334;BME280;62753;40.394;-80.022;2022-10-16T10:55:21;97282.03;;;15.35;26.66
74334;BME280;62753;40.394;-80.022;2022-10-16T10:57:45;97287.96;;;14.99;25.92
74334;BME280;62753;40.394;-80.022;2022-10-16T11:00:15;97285.36;;;15.06;25.90
74334;BME280;62753;40.394;-80.022;2022-10-16T11:02:35;97284.60;;;14.91;26.32
74334;BME280;62753;40.394;-80.022;2022-10-16T11:05:19;97278.34;;;14.66;26.08
74334;BME280;62753;40.394;-80.022;2022-10-16T11:07:24;97277.81;;;15.11;25.53
74334;BME280;62753;40.394;-80.022;2022-10-16T11:09:49;97275.13;;;15.17;25.43
74334;BME280;62753;40.394;-80.022;2022-10-16T11:12:15;97266.77;;;14.93;25.57
74334;BME280;62753;40.394;-80.022;2022-10-16T11:14:41;97254.39;;;13.90;26.83
74334;BME280;62753;40.394;-80.022;2022-10-16T11:17:08;97248.83;;;13.75;28.08
74334;BME280;62753;40.394;-80.022;2022-10-16T11:19:35;97254.92;;;14.99;26.62
74334;BME280;62753;40.394;-80.022;2022-10-16T11:21:59;97257.77;;;15.23;26.25
74334;BME280;62753;40.394;-80.022;2022-10-16T11:24:23;97251.38;;;12.96;28.75
74334;BME280;62753;40.394;-80.022;2022-10-16T11:26:46;97248.19;;;13.80;28.20
74334;BME280;62753;40.394;-80.022;2022-10-16T11:29:15;97244.44;;;14.55;27.13
74334;BME280;62753;40.394;-80.022;2022-10-16T11:31:38;97245.43;;;15.06;26.90
74334;BME280;62753;40.394;-80.022;2022-10-16T11:34:06;97235.02;;;14.98;26.89
74334;BME280;62753;40.394;-80.022;2022-10-16T11:36:31;97232.70;;;14.34;27.20
74334;BME280;62753;40.394;-80.022;2022-10-16T11:38:56;97239.53;;;15.18;26.51
74334;BME280;62753;40.394;-80.022;2022-10-16T11:41:24;97240.42;;;15.03;26.53
74334;BME280;62753;40.394;-80.022;2022-10-16T11:43:48;97239.71;;;14.84;25.53
74334;BME280;62753;40.394;-80.022;2022-10-16T11:46:11;97234.97;;;15.13;25.86
74334;BME280;62753;40.394;-80.022;2022-10-16T11:48:36;97235.38;;;15.15;25.38
74334;BME280;62753;40.394;-80.022;2022-10-16T11:51:02;97239.87;;;15.16;25.09
74334;BME280;62753;40.394;-80.022;2022-10-16T11:53:34;97238.56;;;14.95;24.56
74334;BME280;62753;40.394;-80.022;2022-10-16T11:55:48;97230.73;;;14.81;25.30
74334;BME280;62753;40.394;-80.022;2022-10-16T11:58:21;97223.71;;;15.10;25.26
74334;BME280;62753;40.394;-80.022;2022-10-16T12:00:43;97225.23;;;15.38;25.05
74334;BME280;62753;40.394;-80.022;2022-10-16T12:03:12;97219.00;;;14.37;25.85
74334;BME280;62753;40.394;-80.022;2022-10-16T12:05:38;97222.59;;;15.49;25.11
74334;BME280;62753;40.394;-80.022;2022-10-16T12:08:04;97222.92;;;15.47;25.09
74334;BME280;62753;40.394;-80.022;2022-10-16T12:10:23;97221.20;;;15.58;24.77
74334;BME280;62753;40.394;-80.022;2022-10-16T12:12:46;97221.79;;;16.28;24.79
74334;BME280;62753;40.394;-80.022;2022-10-16T12:15:21;97219.72;;;15.80;25.06
74334;BME280;62753;40.394;-80.022;2022-10-16T12:17:38;97219.68;;;15.45;25.25
74334;BME280;62753;40.394;-80.022;2022-10-16T12:22:29;97216.75;;;16.03;25.14
74334;BME280;62753;40.394;-80.022;2022-10-16T12:24:53;97216.97;;;15.88;25.58
74334;BME280;62753;40.394;-80.022;2022-10-16T12:27:24;97213.25;;;16.01;25.51
74334;BME280;62753;40.394;-80.022;2022-10-16T12:29:44;97217.63;;;16.21;25.45
74334;BME280;62753;40.394;-80.022;2022-10-16T12:34:39;97218.19;;;14.76;26.96
74334;BME280;62753;40.394;-80.022;2022-10-16T12:37:08;97219.86;;;15.83;25.69